sensor_id;sensor_type;location;lat;lon;timestamp;temperature;humidity
9544;DHT22;30418;51.45933468;7.33152330;2023-03-01T00:01:48;5.00;49.00
9544;DHT22;30418;51.45933468;7.33152330;2023-03-01T00:04:16;5.00;49.00
9544;DHT22;30418;51.45933468;7.33152330;2023-03-01T00:06:45;5.00;49.00
9544;DHT22;30418;51.45933468;7.33152330;2023-03-01T00:09:14;5.00;49.00
9544;DHT22;30418;51.45933468;7.33152330;2023-03-01T00:11:45;5.00;49.00
9544;DHT22;30418;51.45933468;7.33152330;2023-03-01T00:14:14;5.00;49.00
9544;DHT22;30418;51.45933468;7.33152330;2023-03-01T00:16:44;5.00;49.00
9544;DHT22;30418;51.45933468;7.33152330;2023-03-01T00:19:14;5.00;49.00
9544;DHT22;30418;51.45933468;7.33152330;2023-03-01T00:21:44;5.00;49.00
9544;DHT22;30418;51.45933468;7.33152330;2023-03-01T00:24:13;5.00;49.00
9544;DHT22;30418;51.45933468;7.33152330;2023-03-01T00:26:42;4.90;48.90
9544;DHT22;30418;51.45933468;7.33152330;2023-03-01T00:29:12;4.90;48.90
9544;DHT22;30418;51.45933468;7.33152330;2023-03-01T00:31:40;4.90;49.00
9544;DHT22;30418;51.45933468;7.33152330;2023-03-01T00:34:09;4.90;48.90
9544;DHT22;30418;51.45933468;7.33152330;2023-03-01T00:36:38;4.90;48.90
9544;DHT22;30418;51.45933468;7.33152330;2023-03-01T00:39:11;4.90;48.90
9544;DHT22;30418;51.45933468;7.33152330;2023-03-01T00:41:41;4.90;49.00
9544;DHT22;30418;51.45933468;7.33152330;2023-03-01T00:44:12;4.90;48.90
9544;DHT22;30418;51.45933468;7.33152330;2023-03-01T00:46:40;4.80;48.80
9544;DHT22;30418;51.45933468;7.33152330;2023-03-01T00:49:09;4.80;48.80
9544;DHT22;30418;51.45933468;7.33152330;2023-03-01T00:51:38;4.80;48.90
9544;DHT22;30418;51.45933468;7.33152330;2023-03-01T00:54:08;4.70;48.90
9544;DHT22;30418;51.45933468;7.33152330;2023-03-01T00:56:37;4.70;49.10
9544;DHT22;30418;51.45933468;7.33152330;2023-03-01T00:59:06;4.70;49.20
9544;DHT22;30418;51.45933468;7.33152330;2023-03-01T01:01:35;4.70;49.20
9544;DHT22;30418;51.45933468;7.33152330;2023-03-01T01:04:06;4.70;49.30
9544;DHT22;30418;51.45933468;7.33152330;2023-03-01T01:06:38;4.70;49.30
9544;DHT22;30418;51.45933468;7.33152330;2023-03-01T01:09:12;4.70;49.30
9544;DHT22;30418;51.45933468;7.33152330;2023-03-01T01:11:46;4.70;49.30
9544;DHT22;30418;51.45933468;7.33152330;2023-03-01T01:14:16;4.70;49.30
9544;DHT22;30418;51.45933468;7.33152330;2023-03-01T01:16:46;4.70;49.20
9544;DHT22;30418;51.45933468;7.33152330;2023-03-01T01:19:15;4.70;49.10
9544;DHT22;30418;51.45933468;7.33152330;2023-03-01T01:21:43;4.60;49.00
9544;DHT22;30418;51.45933468;7.33152330;2023-03-01T01:24:12;4.60;49.00
9544;DHT22;30418;51.45933468;7.33152330;2023-03-01T01:26:41;4.60;49.10
9544;DHT22;30418;51.45933468;7.33152330;2023-03-01T01:29:11;4.50;49.20
9544;DHT22;30418;51.45933468;7.33152330;2023-03-01T01:31:42;4.50;49.20
9544;DHT22;30418;51.45933468;7.33152330;2023-03-01T01:34:15;4.50;49.10
9544;DHT22;30418;51.45933468;7.33152330;2023-03-01T01:36:48;4.50;49.10
9544;DHT22;30418;51.45933468;7.33152330;2023-03-01T01:39:17;4.40;49.10
9544;DHT22;30418;51.45933468;7.33152330;2023-03-01T01:41:46;4.40;49.10
9544;DHT22;30418;51.45933468;7.33152330;2023-03-01T01:44:18;4.30;49.00
9544;DHT22;30418;51.45933468;7.33152330;2023-03-01T01:46:51;4.30;49.10
9544;DHT22;30418;51.45933468;7.33152330;2023-03-01T01:49:29;4.30;49.20
9544;DHT22;30418;51.45933468;7.33152330;2023-03-01T01:52:05;4.20;49.30
9544;DHT22;30418;51.45933468;7.33152330;2023-03-01T01:54:42;4.20;49.30
9544;DHT22;30418;51.45933468;7.33152330;2023-03-01T01:57:15;4.20;49.40
9544;DHT22;30418;51.45933468;7.33152330;2023-03-01T01:59:48;4.20;49.40
9544;DHT22;30418;51.45933468;7.33152330;2023-03-01T02:02:19;4.20;49.50
9544;DHT22;30418;51.45933468;7.33152330;2023-03-01T02:04:55;4.10;49.40
9544;DHT22;30418;51.45933468;7.33152330;2023-03-01T02:07:30;4.10;49.50
9544;DHT22;30418;51.45933468;7.33152330;2023-03-01T02:09:59;4.10;49.50
9544;DHT22;30418;51.45933468;7.33152330;2023-03-01T02:12:28;4.10;49.50
9544;DHT22;30418;51.45933468;7.33152330;2023-03-01T02:14:58;4.10;49.60
9544;DHT22;30418;51.45933468;7.33152330;2023-03-01T02:17:26;4.10;49.60
9544;DHT22;30418;51.45933468;7.33152330;2023-03-01T02:20:06;4.10;49.60
9544;DHT22;30418;51.45933468;7.33152330;2023-03-01T02:22:40;4.10;49.70
9544;DHT22;30418;51.45933468;7.33152330;2023-03-01T02:25:27;4.10;49.60
9544;DHT22;30418;51.45933468;7.33152330;2023-03-01T02:28:05;4.10;49.60
9544;DHT22;30418;51.45933468;7.33152330;2023-03-01T02:30:40;4.10;49.60
9544;DHT22;30418;51.45933468;7.33152330;2023-03-01T02:33:30;4.10;49.60
9544;DHT22;30418;51.45933468;7.33152330;2023-03-01T02:36:02;4.00;49.60
9544;DHT22;30418;51.45933468;7.33152330;2023-03-01T02:38:32;4.00;49.70
9544;DHT22;30418;51.45933468;7.33152330;2023-03-01T02:41:02;4.10;49.80
9544;DHT22;30418;51.45933468;7.33152330;2023-03-01T02:43:33;4.10;50.00
9544;DHT22;30418;51.45933468;7.33152330;2023-03-01T02:46:08;4.00;49.80
9544;DHT22;30418;51.45933468;7.33152330;2023-03-01T02:48:45;4.10;49.90
9544;DHT22;30418;51.45933468;7.33152330;2023-03-01T02:51:34;4.10;49.90
9544;DHT22;30418;51.45933468;7.33152330;2023-03-01T02:54:19;4.10;49.90
9544;DHT22;30418;51.45933468;7.33152330;2023-03-01T02:56:52;4.10;49.90
9544;DHT22;30418;51.45933468;7.33152330;2023-03-01T02:59:24;4.10;49.90
9544;DHT22;30418;51.45933468;7.33152330;2023-03-01T03:01:56;4.10;49.80
9544;DHT22;30418;51.45933468;7.33152330;2023-03-01T03:04:25;4.10;49.90
9544;DHT22;30418;51.45933468;7.33152330;2023-03-01T03:06:53;4.10;49.90
9544;DHT22;30418;51.45933468;7.33152330;2023-03-01T03:09:22;4.10;49.90
9544;DHT22;30418;51.45933468;7.33152330;2023-03-01T03:11:50;4.10;49.90
9544;DHT22;30418;51.45933468;7.33152330;2023-03-01T03:14:19;4.10;49.90
9544;DHT22;30418;51.45933468;7.33152330;2023-03-01T03:16:50;4.10;49.90
9544;DHT22;30418;51.45933468;7.33152330;2023-03-01T03:19:20;4.10;49.90
9544;DHT22;30418;51.45933468;7.33152330;2023-03-01T03:21:48;4.10;49.90
9544;DHT22;30418;51.45933468;7.33152330;2023-03-01T03:24:17;4.10;49.90
9544;DHT22;30418;51.45933468;7.33152330;2023-03-01T03:26:45;4.10;49.80
9544;DHT22;30418;51.45933468;7.33152330;2023-03-01T03:29:13;4.00;49.80
9544;DHT22;30418;51.45933468;7.33152330;2023-03-01T03:31:42;4.00;49.80
9544;DHT22;30418;51.45933468;7.33152330;2023-03-01T03:34:10;4.00;49.80
9544;DHT22;30418;51.45933468;7.33152330;2023-03-01T03:36:46;4.00;49.90
9544;DHT22;30418;51.45933468;7.33152330;2023-03-01T03:39:14;4.00;49.80
9544;DHT22;30418;51.45933468;7.33152330;2023-03-01T03:41:46;4.00;49.90
9544;DHT22;30418;51.45933468;7.33152330;2023-03-01T03:44:14;4.00;49.90
9544;DHT22;30418;51.45933468;7.33152330;2023-03-01T03:46:42;3.90;49.80
9544;DHT22;30418;51.45933468;7.33152330;2023-03-01T03:49:11;3.90;49.80
9544;DHT22;30418;51.45933468;7.33152330;2023-03-01T03:51:39;3.90;49.90
9544;DHT22;30418;51.45933468;7.33152330;2023-03-01T03:54:09;3.90;49.90
9544;DHT22;30418;51.45933468;7.33152330;2023-03-01T03:56:37;3.90;49.90
9544;DHT22;30418;51.45933468;7.33152330;2023-03-01T03:59:06;3.90;50.00
9544;DHT22;30418;51.45933468;7.33152330;2023-03-01T04:01:38;3.90;50.00
9544;DHT22;30418;51.45933468;7.33152330;2023-03-01T04:04:06;3.90;50.00
9544;DHT22;30418;51.45933468;7.33152330;2023-03-01T04:06:35;3.90;49.90
9544;DHT22;30418;51.45933468;7.33152330;2023-03-01T04:09:03;3.80;49.90
9544;DHT22;30418;51.45933468;7.33152330;2023-03-01T04:11:33;3.80;49.90
9544;DHT22;30418;51.45933468;7.33152330;2023-03-01T04:14:01;3.90;50.00
9544;DHT22;30418;51.45933468;7.33152330;2023-03-01T04:16:31;3.80;49.90
9544;DHT22;30418;51.45933468;7.33152330;2023-03-01T04:19:00;3.80;50.00
9544;DHT22;30418;51.45933468;7.33152330;2023-03-01T04:21:28;3.80;50.00
9544;DHT22;30418;51.45933468;7.33152330;2023-03-01T04:23:57;3.80;50.00
9544;DHT22;30418;51.45933468;7.33152330;2023-03-01T04:26:25;3.70;50.00
9544;DHT22;30418;51.45933468;7.33152330;2023-03-01T04:28:55;3.70;50.00
9544;DHT22;30418;51.45933468;7.33152330;2023-03-01T04:31:23;3.70;50.00
9544;DHT22;30418;51.45933468;7.33152330;2023-03-01T04:33:54;3.70;50.00
9544;DHT22;30418;51.45933468;7.33152330;2023-03-01T04:36:25;3.70;50.10
9544;DHT22;30418;51.45933468;7.33152330;2023-03-01T04:38:56;3.70;50.10
9544;DHT22;30418;51.45933468;7.33152330;2023-03-01T04:41:25;3.70;50.10
9544;DHT22;30418;51.45933468;7.33152330;2023-03-01T04:43:55;3.70;50.10
9544;DHT22;30418;51.45933468;7.33152330;2023-03-01T04:46:23;3.70;50.10
9544;DHT22;30418;51.45933468;7.33152330;2023-03-01T04:48:52;3.70;50.10
9544;DHT22;30418;51.45933468;7.33152330;2023-03-01T04:51:21;3.70;50.10
9544;DHT22;30418;51.45933468;7.33152330;2023-03-01T04:53:50;3.70;50.20
9544;DHT22;30418;51.45933468;7.33152330;2023-03-01T04:56:18;3.70;50.10
9544;DHT22;30418;51.45933468;7.33152330;2023-03-01T04:58:47;3.70;50.10
9544;DHT22;30418;51.45933468;7.33152330;2023-03-01T05:01:18;3.70;50.10
9544;DHT22;30418;51.45933468;7.33152330;2023-03-01T05:03:49;3.60;50.10
9544;DHT22;30418;51.45933468;7.33152330;2023-03-01T05:06:20;3.60;50.00
9544;DHT22;30418;51.45933468;7.33152330;2023-03-01T05:08:49;3.60;50.00
9544;DHT22;30418;51.45933468;7.33152330;2023-03-01T05:11:17;3.60;50.00
9544;DHT22;30418;51.45933468;7.33152330;2023-03-01T05:13:46;3.50;49.90
9544;DHT22;30418;51.45933468;7.33152330;2023-03-01T05:16:18;3.50;50.70
9544;DHT22;30418;51.45933468;7.33152330;2023-03-01T05:18:46;3.50;50.10
9544;DHT22;30418;51.45933468;7.33152330;2023-03-01T05:21:17;3.40;50.10
9544;DHT22;30418;51.45933468;7.33152330;2023-03-01T05:23:46;3.40;50.10
9544;DHT22;30418;51.45933468;7.33152330;2023-03-01T05:26:15;3.40;50.10
9544;DHT22;30418;51.45933468;7.33152330;2023-03-01T05:28:54;3.40;50.20
9544;DHT22;30418;51.45933468;7.33152330;2023-03-01T05:31:27;3.40;50.20
9544;DHT22;30418;51.45933468;7.33152330;2023-03-01T05:33:57;3.40;50.20
9544;DHT22;30418;51.45933468;7.33152330;2023-03-01T05:36:26;3.40;50.20
9544;DHT22;30418;51.45933468;7.33152330;2023-03-01T05:38:55;3.40;50.20
9544;DHT22;30418;51.45933468;7.33152330;2023-03-01T05:41:24;3.40;50.20
9544;DHT22;30418;51.45933468;7.33152330;2023-03-01T05:43:52;3.40;50.20
9544;DHT22;30418;51.45933468;7.33152330;2023-03-01T05:46:20;3.40;50.20
9544;DHT22;30418;51.45933468;7.33152330;2023-03-01T05:48:52;3.40;50.20
9544;DHT22;30418;51.45933468;7.33152330;2023-03-01T05:51:21;3.40;50.30
9544;DHT22;30418;51.45933468;7.33152330;2023-03-01T05:53:49;3.40;50.30
9544;DHT22;30418;51.45933468;7.33152330;2023-03-01T05:56:18;3.40;50.30
9544;DHT22;30418;51.45933468;7.33152330;2023-03-01T05:58:49;3.30;50.20
9544;DHT22;30418;51.45933468;7.33152330;2023-03-01T06:01:17;3.30;50.20
9544;DHT22;30418;51.45933468;7.33152330;2023-03-01T06:03:46;3.30;50.30
9544;DHT22;30418;51.45933468;7.33152330;2023-03-01T06:06:16;3.30;50.30
9544;DHT22;30418;51.45933468;7.33152330;2023-03-01T06:08:45;3.30;50.40
9544;DHT22;30418;51.45933468;7.33152330;2023-03-01T06:11:13;3.30;50.30
9544;DHT22;30418;51.45933468;7.33152330;2023-03-01T06:13:42;3.20;50.30
9544;DHT22;30418;51.45933468;7.33152330;2023-03-01T06:16:11;3.20;50.30
9544;DHT22;30418;51.45933468;7.33152330;2023-03-01T06:18:40;3.20;50.40
9544;DHT22;30418;51.45933468;7.33152330;2023-03-01T06:21:09;3.20;50.40
9544;DHT22;30418;51.45933468;7.33152330;2023-03-01T06:23:39;3.20;50.50
9544;DHT22;30418;51.45933468;7.33152330;2023-03-01T06:26:08;3.20;50.50
9544;DHT22;30418;51.45933468;7.33152330;2023-03-01T06:28:37;3.20;50.60
9544;DHT22;30418;51.45933468;7.33152330;2023-03-01T06:31:05;3.20;50.60
9544;DHT22;30418;51.45933468;7.33152330;2023-03-01T06:33:35;3.20;50.60
9544;DHT22;30418;51.45933468;7.33152330;2023-03-01T06:36:04;3.20;50.60
9544;DHT22;30418;51.45933468;7.33152330;2023-03-01T06:38:33;3.20;50.60
9544;DHT22;30418;51.45933468;7.33152330;2023-03-01T06:41:07;3.20;50.60
9544;DHT22;30418;51.45933468;7.33152330;2023-03-01T06:43:35;3.20;50.70
9544;DHT22;30418;51.45933468;7.33152330;2023-03-01T06:46:05;3.20;50.70
9544;DHT22;30418;51.45933468;7.33152330;2023-03-01T06:48:34;3.20;50.70
9544;DHT22;30418;51.45933468;7.33152330;2023-03-01T06:51:03;3.20;50.70
9544;DHT22;30418;51.45933468;7.33152330;2023-03-01T06:53:31;3.20;50.70
9544;DHT22;30418;51.45933468;7.33152330;2023-03-01T06:56:00;3.20;50.70
9544;DHT22;30418;51.45933468;7.33152330;2023-03-01T06:58:30;3.30;50.90
9544;DHT22;30418;51.45933468;7.33152330;2023-03-01T07:00:59;3.20;50.80
9544;DHT22;30418;51.45933468;7.33152330;2023-03-01T07:03:27;3.30;50.90
9544;DHT22;30418;51.45933468;7.33152330;2023-03-01T07:05:56;3.20;50.80
9544;DHT22;30418;51.45933468;7.33152330;2023-03-01T07:08:24;3.30;50.80
9544;DHT22;30418;51.45933468;7.33152330;2023-03-01T07:10:55;3.20;50.80
9544;DHT22;30418;51.45933468;7.33152330;2023-03-01T07:13:24;3.30;50.90
9544;DHT22;30418;51.45933468;7.33152330;2023-03-01T07:15:54;3.30;51.00
9544;DHT22;30418;51.45933468;7.33152330;2023-03-01T07:18:23;3.20;50.90
9544;DHT22;30418;51.45933468;7.33152330;2023-03-01T07:20:52;3.30;51.00
9544;DHT22;30418;51.45933468;7.33152330;2023-03-01T07:23:20;3.30;51.00
9544;DHT22;30418;51.45933468;7.33152330;2023-03-01T07:25:52;3.30;51.00
9544;DHT22;30418;51.45933468;7.33152330;2023-03-01T07:28:22;3.30;51.00
9544;DHT22;30418;51.45933468;7.33152330;2023-03-01T07:30:51;3.30;51.00
9544;DHT22;30418;51.45933468;7.33152330;2023-03-01T07:33:21;3.30;51.00
9544;DHT22;30418;51.45933468;7.33152330;2023-03-01T07:35:56;3.30;51.00
9544;DHT22;30418;51.45933468;7.33152330;2023-03-01T07:38:26;3.30;51.10
9544;DHT22;30418;51.45933468;7.33152330;2023-03-01T07:40:58;3.30;51.00
9544;DHT22;30418;51.45933468;7.33152330;2023-03-01T07:43:27;3.30;51.10
9544;DHT22;30418;51.45933468;7.33152330;2023-03-01T07:45:58;3.20;51.00
9544;DHT22;30418;51.45933468;7.33152330;2023-03-01T07:48:30;3.20;51.10
9544;DHT22;30418;51.45933468;7.33152330;2023-03-01T07:50:59;3.30;51.20
9544;DHT22;30418;51.45933468;7.33152330;2023-03-01T07:53:29;3.20;51.20
9544;DHT22;30418;51.45933468;7.33152330;2023-03-01T07:56:03;3.30;51.30
9544;DHT22;30418;51.45933468;7.33152330;2023-03-01T07:58:33;3.30;51.40
9544;DHT22;30418;51.45933468;7.33152330;2023-03-01T08:01:02;3.30;51.40
9544;DHT22;30418;51.45933468;7.33152330;2023-03-01T08:03:33;3.30;51.40
9544;DHT22;30418;51.45933468;7.33152330;2023-03-01T08:06:04;3.40;51.40
9544;DHT22;30418;51.45933468;7.33152330;2023-03-01T08:08:35;3.40;51.50
9544;DHT22;30418;51.45933468;7.33152330;2023-03-01T08:11:05;3.40;51.50
9544;DHT22;30418;51.45933468;7.33152330;2023-03-01T08:13:34;3.50;51.60
9544;DHT22;30418;51.45933468;7.33152330;2023-03-01T08:16:04;3.40;51.50
9544;DHT22;30418;51.45933468;7.33152330;2023-03-01T08:18:36;3.50;51.60
9544;DHT22;30418;51.45933468;7.33152330;2023-03-01T08:21:05;3.60;51.70
9544;DHT22;30418;51.45933468;7.33152330;2023-03-01T08:23:35;3.60;51.70
9544;DHT22;30418;51.45933468;7.33152330;2023-03-01T08:26:06;3.60;51.60
9544;DHT22;30418;51.45933468;7.33152330;2023-03-01T08:28:36;3.70;51.60
9544;DHT22;30418;51.45933468;7.33152330;2023-03-01T08:31:13;3.70;51.60
9544;DHT22;30418;51.45933468;7.33152330;2023-03-01T08:33:45;3.80;51.60
9544;DHT22;30418;51.45933468;7.33152330;2023-03-01T08:36:18;3.80;51.60
9544;DHT22;30418;51.45933468;7.33152330;2023-03-01T08:38:48;3.80;51.70
9544;DHT22;30418;51.45933468;7.33152330;2023-03-01T08:41:16;3.90;51.70
9544;DHT22;30418;51.45933468;7.33152330;2023-03-01T08:43:45;4.00;51.70
9544;DHT22;30418;51.45933468;7.33152330;2023-03-01T08:46:13;4.00;51.60
9544;DHT22;30418;51.45933468;7.33152330;2023-03-01T08:48:44;4.10;51.70
9544;DHT22;30418;51.45933468;7.33152330;2023-03-01T08:51:14;4.10;51.60
9544;DHT22;30418;51.45933468;7.33152330;2023-03-01T08:53:45;4.20;51.70
9544;DHT22;30418;51.45933468;7.33152330;2023-03-01T08:56:14;4.30;51.60
9544;DHT22;30418;51.45933468;7.33152330;2023-03-01T08:58:45;4.30;51.60
9544;DHT22;30418;51.45933468;7.33152330;2023-03-01T09:01:16;4.40;52.30
9544;DHT22;30418;51.45933468;7.33152330;2023-03-01T09:03:47;4.50;51.70
9544;DHT22;30418;51.45933468;7.33152330;2023-03-01T09:06:16;4.50;51.60
9544;DHT22;30418;51.45933468;7.33152330;2023-03-01T09:08:45;4.60;51.70
9544;DHT22;30418;51.45933468;7.33152330;2023-03-01T09:11:16;4.60;51.60
9544;DHT22;30418;51.45933468;7.33152330;2023-03-01T09:13:47;4.70;51.60
9544;DHT22;30418;51.45933468;7.33152330;2023-03-01T09:16:18;4.80;51.70
9544;DHT22;30418;51.45933468;7.33152330;2023-03-01T09:18:50;4.80;51.60
9544;DHT22;30418;51.45933468;7.33152330;2023-03-01T09:21:20;4.90;51.60
9544;DHT22;30418;51.45933468;7.33152330;2023-03-01T09:24:06;4.90;51.40
9544;DHT22;30418;51.45933468;7.33152330;2023-03-01T09:26:36;5.00;51.40
9544;DHT22;30418;51.45933468;7.33152330;2023-03-01T09:29:04;5.00;51.80
9544;DHT22;30418;51.45933468;7.33152330;2023-03-01T09:31:33;5.10;51.20
9544;DHT22;30418;51.45933468;7.33152330;2023-03-01T09:34:03;5.10;51.10
9544;DHT22;30418;51.45933468;7.33152330;2023-03-01T09:36:32;5.10;51.00
9544;DHT22;30418;51.45933468;7.33152330;2023-03-01T09:39:01;5.20;51.10
9544;DHT22;30418;51.45933468;7.33152330;2023-03-01T09:41:45;5.30;51.20
9544;DHT22;30418;51.45933468;7.33152330;2023-03-01T09:44:27;5.30;51.00
9544;DHT22;30418;51.45933468;7.33152330;2023-03-01T09:46:59;5.40;51.10
9544;DHT22;30418;51.45933468;7.33152330;2023-03-01T09:49:31;5.40;51.10
9544;DHT22;30418;51.45933468;7.33152330;2023-03-01T09:52:09;5.50;51.10
9544;DHT22;30418;51.45933468;7.33152330;2023-03-01T09:54:40;5.50;50.90
9544;DHT22;30418;51.45933468;7.33152330;2023-03-01T09:57:18;5.60;50.80
9544;DHT22;30418;51.45933468;7.33152330;2023-03-01T10:00:10;5.60;50.40
9544;DHT22;30418;51.45933468;7.33152330;2023-03-01T10:02:46;5.70;50.60
9544;DHT22;30418;51.45933468;7.33152330;2023-03-01T10:05:43;5.70;50.70
9544;DHT22;30418;51.45933468;7.33152330;2023-03-01T10:08:29;5.80;50.60
9544;DHT22;30418;51.45933468;7.33152330;2023-03-01T10:11:03;5.80;50.40
9544;DHT22;30418;51.45933468;7.33152330;2023-03-01T10:13:41;5.80;50.50
9544;DHT22;30418;51.45933468;7.33152330;2023-03-01T10:16:18;5.80;50.40
9544;DHT22;30418;51.45933468;7.33152330;2023-03-01T10:18:55;5.90;50.40
9544;DHT22;30418;51.45933468;7.33152330;2023-03-01T10:21:27;5.90;50.30
9544;DHT22;30418;51.45933468;7.33152330;2023-03-01T10:24:08;6.00;50.30
9544;DHT22;30418;51.45933468;7.33152330;2023-03-01T10:26:47;6.00;50.20
9544;DHT22;30418;51.45933468;7.33152330;2023-03-01T10:29:21;6.00;50.30
9544;DHT22;30418;51.45933468;7.33152330;2023-03-01T10:31:53;6.10;50.30
9544;DHT22;30418;51.45933468;7.33152330;2023-03-01T10:34:27;6.10;50.20
9544;DHT22;30418;51.45933468;7.33152330;2023-03-01T10:37:08;6.10;49.90
9544;DHT22;30418;51.45933468;7.33152330;2023-03-01T10:39:55;6.20;49.90
9544;DHT22;30418;51.45933468;7.33152330;2023-03-01T10:42:29;6.20;49.90
9544;DHT22;30418;51.45933468;7.33152330;2023-03-01T10:45:16;6.30;50.00
9544;DHT22;30418;51.45933468;7.33152330;2023-03-01T10:48:11;6.30;50.00
9544;DHT22;30418;51.45933468;7.33152330;2023-03-01T10:50:42;6.30;50.00
9544;DHT22;30418;51.45933468;7.33152330;2023-03-01T10:53:32;6.30;50.00
9544;DHT22;30418;51.45933468;7.33152330;2023-03-01T10:56:03;6.40;50.10
9544;DHT22;30418;51.45933468;7.33152330;2023-03-01T10:58:36;6.40;50.00
9544;DHT22;30418;51.45933468;7.33152330;2023-03-01T11:01:23;6.50;50.10
9544;DHT22;30418;51.45933468;7.33152330;2023-03-01T11:04:10;6.50;49.90
9544;DHT22;30418;51.45933468;7.33152330;2023-03-01T11:06:42;6.50;49.70
9544;DHT22;30418;51.45933468;7.33152330;2023-03-01T11:09:18;6.50;49.90
9544;DHT22;30418;51.45933468;7.33152330;2023-03-01T11:11:52;6.60;50.00
9544;DHT22;30418;51.45933468;7.33152330;2023-03-01T11:14:23;6.60;50.00
9544;DHT22;30418;51.45933468;7.33152330;2023-03-01T11:17:01;6.70;50.00
9544;DHT22;30418;51.45933468;7.33152330;2023-03-01T11:19:32;6.70;49.90
9544;DHT22;30418;51.45933468;7.33152330;2023-03-01T11:22:03;6.70;50.20
9544;DHT22;30418;51.45933468;7.33152330;2023-03-01T11:24:42;6.80;50.30
9544;DHT22;30418;51.45933468;7.33152330;2023-03-01T11:27:20;6.90;49.90
9544;DHT22;30418;51.45933468;7.33152330;2023-03-01T11:29:55;6.90;49.70
9544;DHT22;30418;51.45933468;7.33152330;2023-03-01T11:32:29;6.90;49.70
9544;DHT22;30418;51.45933468;7.33152330;2023-03-01T11:35:04;6.90;49.80
9544;DHT22;30418;51.45933468;7.33152330;2023-03-01T11:37:40;7.00;49.80
9544;DHT22;30418;51.45933468;7.33152330;2023-03-01T11:40:17;7.00;49.70
9544;DHT22;30418;51.45933468;7.33152330;2023-03-01T11:42:59;7.10;49.80
9544;DHT22;30418;51.45933468;7.33152330;2023-03-01T11:45:43;7.10;49.70
9544;DHT22;30418;51.45933468;7.33152330;2023-03-01T11:48:37;7.10;49.60
9544;DHT22;30418;51.45933468;7.33152330;2023-03-01T11:51:23;7.20;49.50
9544;DHT22;30418;51.45933468;7.33152330;2023-03-01T11:54:18;7.20;49.50
9544;DHT22;30418;51.45933468;7.33152330;2023-03-01T11:57:00;7.20;49.40
9544;DHT22;30418;51.45933468;7.33152330;2023-03-01T12:03:02;7.30;49.30
9544;DHT22;30418;51.45933468;7.33152330;2023-03-01T12:09:13;7.40;49.30
9544;DHT22;30418;51.45933468;7.33152330;2023-03-01T12:12:24;7.40;49.40
9544;DHT22;30418;51.45933468;7.33152330;2023-03-01T12:15:26;7.50;49.30
9544;DHT22;30418;51.45933468;7.33152330;2023-03-01T12:18:25;7.50;49.10
9544;DHT22;30418;51.45933468;7.33152330;2023-03-01T12:21:14;7.50;49.10
9544;DHT22;30418;51.45933468;7.33152330;2023-03-01T12:23:59;7.50;49.00
9544;DHT22;30418;51.45933468;7.33152330;2023-03-01T12:26:35;7.50;49.00
9544;DHT22;30418;51.45933468;7.33152330;2023-03-01T12:29:21;7.50;49.10
9544;DHT22;30418;51.45933468;7.33152330;2023-03-01T12:32:17;7.50;48.90
9544;DHT22;30418;51.45933468;7.33152330;2023-03-01T12:35:16;7.50;48.60
9544;DHT22;30418;51.45933468;7.33152330;2023-03-01T12:38:06;7.60;48.80
9544;DHT22;30418;51.45933468;7.33152330;2023-03-01T12:41:01;7.60;48.70
9544;DHT22;30418;51.45933468;7.33152330;2023-03-01T12:43:47;7.60;48.60
9544;DHT22;30418;51.45933468;7.33152330;2023-03-01T12:46:34;7.60;48.50
9544;DHT22;30418;51.45933468;7.33152330;2023-03-01T12:49:13;7.70;49.30
9544;DHT22;30418;51.45933468;7.33152330;2023-03-01T12:51:51;7.70;48.60
9544;DHT22;30418;51.45933468;7.33152330;2023-03-01T12:54:27;7.70;48.60
9544;DHT22;30418;51.45933468;7.33152330;2023-03-01T12:57:00;7.80;48.60
9544;DHT22;30418;51.45933468;7.33152330;2023-03-01T12:59:36;7.80;48.60
9544;DHT22;30418;51.45933468;7.33152330;2023-03-01T13:02:16;7.80;48.60
9544;DHT22;30418;51.45933468;7.33152330;2023-03-01T13:05:05;7.90;48.70
9544;DHT22;30418;51.45933468;7.33152330;2023-03-01T13:07:43;7.90;48.50
9544;DHT22;30418;51.45933468;7.33152330;2023-03-01T13:10:23;7.90;48.20
9544;DHT22;30418;51.45933468;7.33152330;2023-03-01T13:13:09;8.00;48.20
9544;DHT22;30418;51.45933468;7.33152330;2023-03-01T13:15:41;8.00;48.10
9544;DHT22;30418;51.45933468;7.33152330;2023-03-01T13:18:31;8.10;48.90
9544;DHT22;30418;51.45933468;7.33152330;2023-03-01T13:21:02;8.10;48.20
9544;DHT22;30418;51.45933468;7.33152330;2023-03-01T13:23:37;8.10;48.20
9544;DHT22;30418;51.45933468;7.33152330;2023-03-01T13:26:10;8.20;48.10
9544;DHT22;30418;51.45933468;7.33152330;2023-03-01T13:29:01;8.20;48.10
9544;DHT22;30418;51.45933468;7.33152330;2023-03-01T13:34:43;8.30;47.90
9544;DHT22;30418;51.45933468;7.33152330;2023-03-01T13:37:27;8.40;47.70
9544;DHT22;30418;51.45933468;7.33152330;2023-03-01T13:39:59;8.40;47.70
9544;DHT22;30418;51.45933468;7.33152330;2023-03-01T13:42:35;8.50;47.40
9544;DHT22;30418;51.45933468;7.33152330;2023-03-01T13:45:21;8.50;47.40
9544;DHT22;30418;51.45933468;7.33152330;2023-03-01T13:47:55;8.60;47.10
9544;DHT22;30418;51.45933468;7.33152330;2023-03-01T13:50:31;8.60;47.30
9544;DHT22;30418;51.45933468;7.33152330;2023-03-01T13:53:04;8.60;47.10
9544;DHT22;30418;51.45933468;7.33152330;2023-03-01T13:55:37;8.60;47.20
9544;DHT22;30418;51.45933468;7.33152330;2023-03-01T13:58:19;8.60;47.00
9544;DHT22;30418;51.45933468;7.33152330;2023-03-01T14:00:56;8.70;46.90
9544;DHT22;30418;51.45933468;7.33152330;2023-03-01T14:03:26;8.70;46.90
9544;DHT22;30418;51.45933468;7.33152330;2023-03-01T14:06:05;8.70;46.90
9544;DHT22;30418;51.45933468;7.33152330;2023-03-01T14:08:48;8.80;46.90
9544;DHT22;30418;51.45933468;7.33152330;2023-03-01T14:14:39;8.90;47.10
9544;DHT22;30418;51.45933468;7.33152330;2023-03-01T14:17:33;8.90;47.00
9544;DHT22;30418;51.45933468;7.33152330;2023-03-01T14:20:14;9.00;47.10
9544;DHT22;30418;51.45933468;7.33152330;2023-03-01T14:22:49;9.00;47.10
9544;DHT22;30418;51.45933468;7.33152330;2023-03-01T14:25:28;9.10;47.10
9544;DHT22;30418;51.45933468;7.33152330;2023-03-01T14:28:02;9.10;46.50
9544;DHT22;30418;51.45933468;7.33152330;2023-03-01T14:30:35;9.20;46.60
9544;DHT22;30418;51.45933468;7.33152330;2023-03-01T14:33:17;9.20;46.40
9544;DHT22;30418;51.45933468;7.33152330;2023-03-01T14:35:56;9.20;46.20